Time,TemperatureF,DewpointF,PressureIn,WindDirection,WindDirectionDegrees,WindSpeedMPH,WindSpeedGustMPH,Humidity,HourlyPrecipIn,Conditions,Clouds,dailyrainin,SoftwareType,DateUTC
2013-01-09 00:03:00,47.0,41.1,30.13,SE,135,0.0,3.0,80,0.00,,,0.00,Weather View 32 v70,2013-01-09 08:03:00,
2013-01-09 00:08:00,47.0,40.2,30.13,West,270,0.0,4.0,77,0.00,,,0.00,Weather View 32 v70,2013-01-09 08:08:00,
2013-01-09 00:13:00,47.0,40.2,30.12,WNW,292,0.0,4.0,77,0.00,,,0.00,Weather View 32 v70,2013-01-09 08:13:00,
2013-01-09 00:23:00,47.0,40.2,30.12,NW,315,0.0,4.0,77,0.00,,,0.00,Weather View 32 v70,2013-01-09 08:23:00,
2013-01-09 00:28:00,47.0,40.2,30.12,NW,315,0.0,4.0,77,0.00,,,0.00,Weather View 32 v70,2013-01-09 08:28:00,
2013-01-09 00:33:00,47.0,40.2,30.12,NW,315,0.0,4.0,77,0.00,,,0.00,Weather View 32 v70,2013-01-09 08:33:00,
2013-01-09 00:38:00,47.0,41.5,30.12,SW,225,0.0,4.0,81,0.00,,,0.00,Weather View 32 v70,2013-01-09 08:38:00,
2013-01-09 00:43:00,47.0,40.5,30.12,West,270,0.0,4.0,78,0.00,,,0.00,Weather View 32 v70,2013-01-09 08:43:00,
2013-01-09 00:48:00,47.0,40.5,30.12,West,270,0.0,4.0,78,0.00,,,0.00,Weather View 32 v70,2013-01-09 08:48:00,
2013-01-09 00:53:00,47.0,40.2,30.12,West,270,0.0,4.0,77,0.00,,,0.00,Weather View 32 v70,2013-01-09 08:53:00,
2013-01-09 00:58:00,47.0,40.5,30.12,West,270,0.0,4.0,78,0.00,,,0.00,Weather View 32 v70,2013-01-09 08:58:00,
2013-01-09 01:00:00,47.0,40.5,30.12,West,270,0.0,4.0,78,0.00,,,0.00,Weather View 32 v70,2013-01-09 09:00:00,
2013-01-09 01:03:00,47.0,40.2,30.12,West,270,0.0,4.0,77,0.00,,,0.00,Weather View 32 v70,2013-01-09 09:03:00,
2013-01-09 01:08:00,47.0,40.5,30.12,West,270,0.0,3.0,78,0.00,,,0.00,Weather View 32 v70,2013-01-09 09:08:00,
2013-01-09 01:13:00,47.0,40.5,30.12,NNW,337,0.0,4.0,78,0.00,,,0.00,Weather View 32 v70,2013-01-09 09:13:00,
2013-01-09 01:18:00,47.0,40.5,30.12,NNE,22,0.0,4.0,78,0.00,,,0.00,Weather View 32 v70,2013-01-09 09:18:00,
2013-01-09 01:23:00,47.0,40.5,30.11,NNE,22,0.0,4.0,78,0.00,,,0.00,Weather View 32 v70,2013-01-09 09:23:00,
2013-01-09 01:28:00,47.0,41.5,30.11,ENE,67,0.0,4.0,81,0.00,,,0.00,Weather View 32 v70,2013-01-09 09:28:00,
2013-01-09 01:33:00,47.0,40.5,30.11,NE,45,0.0,4.0,78,0.00,,,0.00,Weather View 32 v70,2013-01-09 09:33:00,
2013-01-09 01:38:00,47.0,40.5,30.11,NNE,22,0.0,4.0,78,0.00,,,0.00,Weather View 32 v70,2013-01-09 09:38:00,
2013-01-09 01:43:00,47.0,40.5,30.11,NNE,22,0.0,4.0,78,0.00,,,0.00,Weather View 32 v70,2013-01-09 09:43:00,
2013-01-09 01:48:00,47.0,40.5,30.11,NNE,22,0.0,4.0,78,0.00,,,0.00,Weather View 32 v70,2013-01-09 09:48:00,
2013-01-09 01:53:00,47.0,40.5,30.11,NE,45,0.0,4.0,78,0.00,,,0.00,Weather View 32 v70,2013-01-09 09:53:00,
2013-01-09 01:58:00,47.0,40.5,30.12,NE,45,0.0,4.0,78,0.00,,,0.00,Weather View 32 v70,2013-01-09 09:58:00,
2013-01-09 02:03:00,47.0,41.1,30.11,NE,45,0.0,4.0,80,0.00,,,0.00,Weather View 32 v70,2013-01-09 10:03:00,
2013-01-09 02:08:00,47.0,40.5,30.11,NE,45,1.0,4.0,78,0.00,,,0.00,Weather View 32 v70,2013-01-09 10:08:00,
2013-01-09 02:13:00,47.0,40.5,30.12,NE,45,0.0,4.0,78,0.00,,,0.00,Weather View 32 v70,2013-01-09 10:13:00,
2013-01-09 02:18:00,47.0,40.5,30.11,NNE,22,0.0,4.0,78,0.00,,,0.00,Weather View 32 v70,2013-01-09 10:18:00,
2013-01-09 02:23:00,47.0,40.5,30.11,NNE,22,0.0,4.0,78,0.00,,,0.00,Weather View 32 v70,2013-01-09 10:23:00,
2013-01-09 02:28:00,47.0,40.5,30.11,NNE,22,0.0,4.0,78,0.00,,,0.00,Weather View 32 v70,2013-01-09 10:28:00,
2013-01-09 02:33:00,47.0,40.5,30.11,NNE,22,0.0,4.0,78,0.00,,,0.00,Weather View 32 v70,2013-01-09 10:33:00,
2013-01-09 02:38:00,47.0,41.5,30.11,NNE,22,0.0,6.0,81,0.00,,,0.00,Weather View 32 v70,2013-01-09 10:38:00,
2013-01-09 02:43:00,47.0,40.5,30.11,NNE,22,0.0,6.0,78,0.00,,,0.00,Weather View 32 v70,2013-01-09 10:43:00,
2013-01-09 02:48:00,47.0,40.5,30.10,NNE,22,3.0,6.0,78,0.00,,,0.00,Weather View 32 v70,2013-01-09 10:48:00,
2013-01-09 02:53:00,47.0,40.5,30.11,NE,45,0.0,6.0,78,0.00,,,0.00,Weather View 32 v70,2013-01-09 10:53:00,
2013-01-09 02:58:00,47.0,40.5,30.11,NE,45,0.0,6.0,78,0.00,,,0.00,Weather View 32 v70,2013-01-09 10:58:00,
2013-01-09 03:01:00,47.0,40.5,30.11,NE,45,0.0,6.0,78,0.00,,,0.00,Weather View 32 v70,2013-01-09 11:01:00,
2013-01-09 03:07:00,46.0,39.8,30.11,NE,45,0.0,6.0,79,0.00,,,0.00,Weather View 32 v70,2013-01-09 11:07:00,
2013-01-09 03:13:00,46.0,40.8,30.11,NE,45,0.0,6.0,82,0.00,,,0.00,Weather View 32 v70,2013-01-09 11:13:00,
2013-01-09 03:19:00,46.0,39.8,30.11,NE,45,0.0,6.0,79,0.00,,,0.00,Weather View 32 v70,2013-01-09 11:19:00,
2013-01-09 03:24:00,46.0,39.8,30.10,NNE,22,1.0,6.0,79,0.00,,,0.00,Weather View 32 v70,2013-01-09 11:24:00,
2013-01-09 03:29:00,46.0,39.8,30.11,NNE,22,1.0,6.0,79,0.00,,,0.00,Weather View 32 v70,2013-01-09 11:29:00,
2013-01-09 03:33:00,46.0,40.8,30.11,NE,45,2.0,6.0,82,0.00,,,0.00,Weather View 32 v70,2013-01-09 11:33:00,
2013-01-09 03:38:00,46.0,39.8,30.11,NE,45,4.0,8.0,79,0.00,,,0.00,Weather View 32 v70,2013-01-09 11:38:00,
2013-01-09 03:44:00,47.0,40.5,30.11,NNE,22,3.0,8.0,78,0.00,,,0.00,Weather View 32 v70,2013-01-09 11:44:00,
2013-01-09 03:48:00,47.0,40.5,30.10,NNE,22,0.0,8.0,78,0.00,,,0.00,Weather View 32 v70,2013-01-09 11:48:00,
2013-01-09 03:53:00,47.0,40.5,30.10,NNE,22,1.0,9.0,78,0.00,,,0.00,Weather View 32 v70,2013-01-09 11:53:00,
2013-01-09 03:59:00,47.0,40.5,30.10,NNE,22,0.0,9.0,78,0.00,,,0.00,Weather View 32 v70,2013-01-09 11:59:00,
2013-01-09 04:03:00,47.0,40.5,30.10,NNE,22,0.0,9.0,78,0.00,,,0.00,Weather View 32 v70,2013-01-09 12:03:00,
2013-01-09 04:08:00,46.0,40.5,30.10,NNE,22,1.0,9.0,81,0.00,,,0.00,Weather View 32 v70,2013-01-09 12:08:00,
2013-01-09 04:13:00,46.0,39.8,30.10,NE,45,1.0,9.0,79,0.00,,,0.00,Weather View 32 v70,2013-01-09 12:13:00,
2013-01-09 04:15:00,46.0,39.8,30.10,NE,45,1.0,9.0,79,0.00,,,0.00,Weather View 32 v70,2013-01-09 12:15:00,
2013-01-09 07:09:00,46.0,38.8,30.09,NE,45,0.0,2.0,76,0.00,,,0.00,Weather View 32 v70,2013-01-09 15:09:00,
2013-01-09 07:14:00,47.0,36.2,30.09,NE,45,0.0,3.0,66,0.00,,,0.00,Weather View 32 v70,2013-01-09 15:14:00,
2013-01-09 07:18:00,46.0,34.9,30.09,NE,45,0.0,3.0,65,0.00,,,0.00,Weather View 32 v70,2013-01-09 15:18:00,
2013-01-09 07:23:00,47.0,35.8,30.09,NNE,22,0.0,3.0,65,0.00,,,0.00,Weather View 32 v70,2013-01-09 15:23:00,
2013-01-09 07:28:00,47.0,35.4,30.09,NE,45,2.0,4.0,64,0.00,,,0.00,Weather View 32 v70,2013-01-09 15:28:00,
2013-01-09 07:33:00,47.0,34.6,30.09,NE,45,0.0,4.0,62,0.00,,,0.00,Weather View 32 v70,2013-01-09 15:33:00,
2013-01-09 07:38:00,48.0,29.7,30.08,NE,45,1.0,4.0,49,0.00,,,0.00,Weather View 32 v70,2013-01-09 15:38:00,
2013-01-09 07:43:00,47.0,34.6,30.08,NE,45,0.0,4.0,62,0.00,,,0.00,Weather View 32 v70,2013-01-09 15:43:00,
2013-01-09 07:53:00,48.0,35.2,30.08,ENE,67,0.0,5.0,61,0.00,,,0.00,Weather View 32 v70,2013-01-09 15:53:00,
2013-01-09 07:58:00,47.0,33.8,30.08,ENE,67,0.0,5.0,60,0.00,,,0.00,Weather View 32 v70,2013-01-09 15:58:00,
2013-01-09 08:03:00,47.0,33.8,30.08,ENE,67,0.0,5.0,60,0.00,,,0.00,Weather View 32 v70,2013-01-09 16:03:00,
2013-01-09 08:06:00,47.0,33.8,30.08,ENE,67,0.0,5.0,60,0.00,,,0.00,Weather View 32 v70,2013-01-09 16:06:00,
2013-01-09 08:08:00,47.0,33.8,30.09,ENE,67,0.0,5.0,60,0.00,,,0.00,Weather View 32 v70,2013-01-09 16:08:00,
2013-01-09 08:13:00,48.0,14.7,30.08,ENE,67,0.0,5.0,26,0.00,,,0.00,Weather View 32 v70,2013-01-09 16:13:00,
2013-01-09 08:23:00,48.0,34.8,30.09,ENE,67,0.0,5.0,60,0.00,,,0.00,Weather View 32 v70,2013-01-09 16:23:00,
2013-01-09 08:28:00,48.0,34.8,30.08,ENE,67,0.0,5.0,60,0.00,,,0.00,Weather View 32 v70,2013-01-09 16:28:00,
2013-01-09 08:33:00,49.0,36.1,30.08,ENE,67,0.0,5.0,61,0.00,,,0.00,Weather View 32 v70,2013-01-09 16:33:00,
2013-01-09 08:38:00,49.0,36.1,30.08,ENE,67,0.0,5.0,61,0.00,,,0.00,Weather View 32 v70,2013-01-09 16:38:00,
2013-01-09 08:43:00,49.0,36.1,30.08,ENE,67,0.0,5.0,61,0.00,,,0.00,Weather View 32 v70,2013-01-09 16:43:00,
2013-01-09 08:53:00,50.0,37.1,30.07,ENE,67,0.0,2.0,61,0.00,,,0.00,Weather View 32 v70,2013-01-09 16:53:00,
2013-01-09 08:58:00,50.0,37.1,30.07,ENE,67,4.0,5.0,61,0.00,,,0.00,Weather View 32 v70,2013-01-09 16:58:00,
2013-01-09 09:03:00,50.0,36.2,30.08,ENE,67,0.0,5.0,59,0.00,,,0.00,Weather View 32 v70,2013-01-09 17:03:00,
2013-01-09 09:07:00,50.0,36.2,30.08,ENE,67,0.0,5.0,59,0.00,,,0.00,Weather View 32 v70,2013-01-09 17:07:00,
2013-01-09 09:13:00,50.0,35.8,30.07,ENE,67,0.0,5.0,58,0.00,,,0.00,Weather View 32 v70,2013-01-09 17:13:00,
2013-01-09 09:18:00,50.0,35.8,30.07,ENE,67,0.0,5.0,58,0.00,,,0.00,Weather View 32 v70,2013-01-09 17:18:00,
2013-01-09 09:23:00,50.0,35.8,30.07,ENE,67,0.0,5.0,58,0.00,,,0.00,Weather View 32 v70,2013-01-09 17:23:00,
2013-01-09 09:28:00,50.0,35.3,30.07,ENE,67,0.0,6.0,57,0.00,,,0.00,Weather View 32 v70,2013-01-09 17:28:00,
2013-01-09 09:33:00,51.0,36.7,30.07,ENE,67,3.0,6.0,58,0.00,,,0.00,Weather View 32 v70,2013-01-09 17:33:00,
2013-01-09 09:38:00,51.0,-46.6,30.07,ENE,67,0.0,6.0,1,0.00,,,0.00,Weather View 32 v70,2013-01-09 17:38:00,
2013-01-09 09:43:00,51.0,35.8,30.07,ENE,67,0.0,6.0,56,0.00,,,0.00,Weather View 32 v70,2013-01-09 17:43:00,
2013-01-09 09:48:00,51.0,33.5,30.07,ENE,67,0.0,6.0,51,0.00,,,0.00,Weather View 32 v70,2013-01-09 17:48:00,
2013-01-09 09:53:00,52.0,35.4,30.07,ENE,67,1.0,6.0,53,0.00,,,0.00,Weather View 32 v70,2013-01-09 17:53:00,
2013-01-09 09:58:00,52.0,35.8,30.07,ENE,67,0.0,6.0,54,0.00,,,0.00,Weather View 32 v70,2013-01-09 17:58:00,
2013-01-09 10:03:00,52.0,36.8,30.07,ENE,67,0.0,6.0,56,0.00,,,0.00,Weather View 32 v70,2013-01-09 18:03:00,
2013-01-09 10:07:00,52.0,36.8,30.07,ENE,67,0.0,6.0,56,0.00,,,0.00,Weather View 32 v70,2013-01-09 18:07:00,
2013-01-09 10:08:00,52.0,36.8,30.07,ENE,67,0.0,6.0,56,0.00,,,0.00,Weather View 32 v70,2013-01-09 18:08:00,
2013-01-09 10:13:00,52.0,-46.0,30.07,ENE,67,0.0,6.0,1,0.00,,,0.00,Weather View 32 v70,2013-01-09 18:13:00,
2013-01-09 10:18:00,52.0,36.8,30.07,ENE,67,2.0,7.0,56,0.00,,,0.00,Weather View 32 v70,2013-01-09 18:18:00,
2013-01-09 10:23:00,52.0,36.8,30.07,ENE,67,0.0,7.0,56,0.00,,,0.00,Weather View 32 v70,2013-01-09 18:23:00,
2013-01-09 10:28:00,52.0,36.8,30.07,ENE,67,0.0,7.0,56,0.00,,,0.00,Weather View 32 v70,2013-01-09 18:28:00,
2013-01-09 10:33:00,52.0,35.4,30.07,ENE,67,0.0,7.0,53,0.00,,,0.00,Weather View 32 v70,2013-01-09 18:33:00,
2013-01-09 10:38:00,52.0,34.9,30.06,ENE,67,0.0,7.0,52,0.00,,,0.00,Weather View 32 v70,2013-01-09 18:38:00,
2013-01-09 10:43:00,53.0,33.8,30.05,ENE,67,0.0,7.0,48,0.00,,,0.00,Weather View 32 v70,2013-01-09 18:43:00,
2013-01-09 10:48:00,54.0,-44.7,30.05,ENE,67,0.0,7.0,1,0.00,,,0.00,Weather View 32 v70,2013-01-09 18:48:00,
2013-01-09 10:53:00,54.0,36.2,30.05,ENE,67,0.0,7.0,51,0.00,,,0.00,Weather View 32 v70,2013-01-09 18:53:00,
2013-01-09 10:58:00,54.0,37.2,30.05,ENE,67,0.0,7.0,53,0.00,,,0.00,Weather View 32 v70,2013-01-09 18:58:00,
2013-01-09 11:04:00,54.0,37.2,30.05,ENE,67,3.0,7.0,53,0.00,,,0.00,Weather View 32 v70,2013-01-09 19:04:00,
2013-01-09 11:08:00,54.0,37.2,30.05,ENE,67,3.0,7.0,53,0.00,,,0.00,Weather View 32 v70,2013-01-09 19:08:00,
2013-01-09 11:13:00,54.0,37.2,30.04,ENE,67,0.0,7.0,53,0.00,,,0.00,Weather View 32 v70,2013-01-09 19:13:00,
2013-01-09 11:18:00,55.0,38.6,30.03,ENE,67,2.0,6.0,54,0.00,,,0.00,Weather View 32 v70,2013-01-09 19:18:00,
2013-01-09 11:23:00,54.0,37.2,30.03,NE,45,5.0,7.0,53,0.00,,,0.00,Weather View 32 v70,2013-01-09 19:23:00,
2013-01-09 11:28:00,54.0,37.2,30.03,NE,45,0.0,7.0,53,0.00,,,0.00,Weather View 32 v70,2013-01-09 19:28:00,
2013-01-09 11:38:00,54.0,37.2,30.04,NE,45,3.0,7.0,53,0.00,,,0.00,Weather View 32 v70,2013-01-09 19:38:00,
2013-01-09 11:43:00,54.0,-44.7,30.03,NE,45,4.0,9.0,1,0.00,,,0.00,Weather View 32 v70,2013-01-09 19:43:00,
2013-01-09 11:48:00,53.0,36.8,30.03,NE,45,0.0,9.0,54,0.00,,,0.00,Weather View 32 v70,2013-01-09 19:48:00,
2013-01-09 11:58:00,53.0,36.8,30.03,NE,45,0.0,9.0,54,0.00,,,0.00,Weather View 32 v70,2013-01-09 19:58:00,
2013-01-09 12:03:00,53.0,36.8,30.03,NE,45,1.0,9.0,54,0.00,,,0.00,Weather View 32 v70,2013-01-09 20:03:00,
2013-01-09 12:08:00,53.0,36.8,30.03,NE,45,0.0,9.0,54,0.00,,,0.00,Weather View 32 v70,2013-01-09 20:08:00,
2013-01-09 12:13:00,53.0,36.8,30.03,NE,45,3.0,9.0,54,0.00,,,0.00,Weather View 32 v70,2013-01-09 20:13:00,
2013-01-09 12:18:00,53.0,-45.3,30.02,NE,45,5.0,9.0,1,0.00,,,0.00,Weather View 32 v70,2013-01-09 20:18:00,
2013-01-09 12:23:00,53.0,36.8,30.02,NE,45,5.0,9.0,54,0.00,,,0.00,Weather View 32 v70,2013-01-09 20:23:00,
2013-01-09 12:28:00,53.0,37.2,30.02,NE,45,0.0,9.0,55,0.00,,,0.00,Weather View 32 v70,2013-01-09 20:28:00,
2013-01-09 12:33:00,53.0,37.2,30.01,NE,45,3.0,9.0,55,0.00,,,0.00,Weather View 32 v70,2013-01-09 20:33:00,
2013-01-09 12:38:00,53.0,37.7,30.01,NE,45,3.0,9.0,56,0.00,,,0.00,Weather View 32 v70,2013-01-09 20:38:00,
2013-01-09 12:43:00,53.0,36.8,30.01,NE,45,0.0,9.0,54,0.00,,,0.00,Weather View 32 v70,2013-01-09 20:43:00,
2013-01-09 12:48:00,53.0,37.2,30.01,NE,45,8.0,12.0,55,0.00,,,0.00,Weather View 32 v70,2013-01-09 20:48:00,
2013-01-09 12:53:00,53.0,-45.3,30.01,NE,45,2.0,12.0,1,0.00,,,0.00,Weather View 32 v70,2013-01-09 20:53:00,
2013-01-09 12:58:00,53.0,38.1,30.01,NE,45,4.0,12.0,57,0.00,,,0.00,Weather View 32 v70,2013-01-09 20:58:00,
2013-01-09 13:03:00,53.0,37.2,30.01,NE,45,6.0,12.0,55,0.00,,,0.00,Weather View 32 v70,2013-01-09 21:03:00,
2013-01-09 13:08:00,53.0,37.7,30.01,NE,45,0.0,12.0,56,0.00,,,0.00,Weather View 32 v70,2013-01-09 21:08:00,
2013-01-09 13:13:00,53.0,37.2,30.01,NE,45,3.0,12.0,55,0.00,,,0.00,Weather View 32 v70,2013-01-09 21:13:00,
2013-01-09 13:18:00,53.0,38.1,30.01,NE,45,2.0,12.0,57,0.00,,,0.00,Weather View 32 v70,2013-01-09 21:18:00,
2013-01-09 13:23:00,53.0,37.7,30.01,NE,45,3.0,12.0,56,0.00,,,0.00,Weather View 32 v70,2013-01-09 21:23:00,
2013-01-09 13:28:00,53.0,38.6,30.01,NE,45,0.0,12.0,58,0.00,,,0.00,Weather View 32 v70,2013-01-09 21:28:00,
2013-01-09 13:33:00,53.0,38.1,30.01,NE,45,4.0,12.0,57,0.00,,,0.00,Weather View 32 v70,2013-01-09 21:33:00,
2013-01-09 13:38:00,53.0,38.1,30.01,NE,45,6.0,12.0,57,0.00,,,0.00,Weather View 32 v70,2013-01-09 21:38:00,
2013-01-09 13:43:00,53.0,-45.3,30.00,NE,45,2.0,12.0,1,0.00,,,0.00,Weather View 32 v70,2013-01-09 21:43:00,
2013-01-09 13:48:00,53.0,38.1,30.00,NE,45,6.0,12.0,57,0.00,,,0.00,Weather View 32 v70,2013-01-09 21:48:00,
2013-01-09 13:53:00,53.0,38.1,30.00,NE,45,3.0,12.0,57,0.00,,,0.00,Weather View 32 v70,2013-01-09 21:53:00,
2013-01-09 13:58:00,53.0,38.6,29.99,NE,45,0.0,12.0,58,0.00,,,0.00,Weather View 32 v70,2013-01-09 21:58:00,
2013-01-09 14:03:00,53.0,38.6,29.99,NE,45,5.0,12.0,58,0.00,,,0.00,Weather View 32 v70,2013-01-09 22:03:00,
2013-01-09 14:08:00,53.0,38.6,30.00,NE,45,4.0,12.0,58,0.00,,,0.00,Weather View 32 v70,2013-01-09 22:08:00,
2013-01-09 14:09:00,53.0,38.6,30.00,NE,45,4.0,12.0,58,0.00,,,0.00,Weather View 32 v70,2013-01-09 22:09:00,
2013-01-09 14:13:00,52.0,38.1,29.99,NE,45,6.0,12.0,59,0.00,,,0.00,Weather View 32 v70,2013-01-09 22:13:00,
2013-01-09 14:18:00,53.0,-45.3,29.99,NE,45,6.0,13.0,1,0.00,,,0.00,Weather View 32 v70,2013-01-09 22:18:00,
2013-01-09 14:23:00,52.0,38.9,29.99,NE,45,2.0,13.0,61,0.00,,,0.00,Weather View 32 v70,2013-01-09 22:23:00,
2013-01-09 14:28:00,52.0,38.5,30.00,NE,45,10.0,13.0,60,0.00,,,0.00,Weather View 32 v70,2013-01-09 22:28:00,
2013-01-09 14:33:00,51.0,37.6,30.01,NE,45,4.0,14.0,60,0.01,,,0.01,Weather View 32 v70,2013-01-09 22:33:00,
2013-01-09 14:38:00,51.0,37.6,30.01,NE,45,1.0,18.0,60,0.01,,,0.01,Weather View 32 v70,2013-01-09 22:38:00,
2013-01-09 14:43:00,50.0,36.2,30.00,NE,45,12.0,18.0,59,0.01,,,0.01,Weather View 32 v70,2013-01-09 22:43:00,
2013-01-09 14:48:00,50.0,36.6,30.01,NE,45,9.0,18.0,60,0.01,,,0.01,Weather View 32 v70,2013-01-09 22:48:00,
2013-01-09 14:53:00,50.0,15.5,30.00,NE,45,11.0,18.0,25,0.01,,,0.01,Weather View 32 v70,2013-01-09 22:53:00,
2013-01-09 14:58:00,50.0,37.1,30.00,NE,45,2.0,18.0,61,0.01,,,0.01,Weather View 32 v70,2013-01-09 22:58:00,
2013-01-09 15:03:00,50.0,37.1,30.01,NE,45,0.0,18.0,61,0.01,,,0.01,Weather View 32 v70,2013-01-09 23:03:00,
2013-01-09 15:08:00,50.0,37.1,30.01,NE,45,0.0,18.0,61,0.01,,,0.01,Weather View 32 v70,2013-01-09 23:08:00,
2013-01-09 15:13:00,49.0,36.5,30.01,NE,45,6.0,22.0,62,0.01,,,0.01,Weather View 32 v70,2013-01-09 23:13:00,
2013-01-09 15:18:00,49.0,36.1,30.02,NE,45,6.0,22.0,61,0.01,,,0.01,Weather View 32 v70,2013-01-09 23:18:00,
2013-01-09 15:23:00,49.0,36.1,30.02,NE,45,10.0,22.0,61,0.01,,,0.01,Weather View 32 v70,2013-01-09 23:23:00,
2013-01-09 15:28:00,49.0,23.8,30.02,NE,45,6.0,22.0,37,0.01,,,0.01,Weather View 32 v70,2013-01-09 23:28:00,
2013-01-09 15:33:00,49.0,36.1,30.02,NE,45,6.0,22.0,61,0.00,,,0.01,Weather View 32 v70,2013-01-09 23:33:00,
2013-01-09 15:37:00,49.0,35.3,30.02,NE,45,9.0,22.0,59,0.00,,,0.01,Weather View 32 v70,2013-01-09 23:37:00,
2013-01-09 15:42:00,49.0,34.8,30.02,NE,45,7.0,22.0,58,0.00,,,0.01,Weather View 32 v70,2013-01-09 23:42:00,
2013-01-09 15:47:00,49.0,34.8,30.02,NE,45,6.0,22.0,58,0.00,,,0.01,Weather View 32 v70,2013-01-09 23:47:00,
2013-01-09 15:52:00,49.0,35.3,30.01,NE,45,7.0,22.0,59,0.00,,,0.01,Weather View 32 v70,2013-01-09 23:52:00,
2013-01-09 15:57:00,49.0,35.3,30.01,NE,45,6.0,22.0,59,0.00,,,0.01,Weather View 32 v70,2013-01-09 23:57:00,
2013-01-09 16:04:00,50.0,36.2,30.01,NE,45,4.0,22.0,59,0.00,,,0.01,Weather View 32 v70,2013-01-10 00:04:00,
2013-01-09 16:09:00,50.0,35.8,30.01,NE,45,9.0,22.0,58,0.00,,,0.01,Weather View 32 v70,2013-01-10 00:09:00,
2013-01-09 16:11:00,50.0,35.8,30.01,NE,45,9.0,22.0,58,0.00,,,0.01,Weather View 32 v70,2013-01-10 00:11:00,
2013-01-09 16:14:00,49.0,34.8,30.00,NE,45,4.0,19.0,58,0.00,,,0.01,Weather View 32 v70,2013-01-10 00:14:00,
2013-01-09 16:18:00,49.0,34.8,30.01,NE,45,8.0,19.0,58,0.00,,,0.01,Weather View 32 v70,2013-01-10 00:18:00,
2013-01-09 16:23:00,49.0,18.1,30.01,NE,45,0.0,18.0,29,0.00,,,0.01,Weather View 32 v70,2013-01-10 00:23:00,
2013-01-09 16:28:00,49.0,35.3,30.01,NE,45,5.0,18.0,59,0.00,,,0.01,Weather View 32 v70,2013-01-10 00:28:00,
2013-01-09 16:33:00,49.0,35.7,30.01,NE,45,5.0,18.0,60,0.00,,,0.01,Weather View 32 v70,2013-01-10 00:33:00,
2013-01-09 16:38:00,49.0,36.1,30.01,NE,45,6.0,18.0,61,0.00,,,0.01,Weather View 32 v70,2013-01-10 00:38:00,
2013-01-09 16:43:00,49.0,36.1,30.01,NE,45,3.0,16.0,61,0.00,,,0.01,Weather View 32 v70,2013-01-10 00:43:00,
2013-01-09 16:48:00,49.0,36.5,30.01,NE,45,0.0,18.0,62,0.00,,,0.01,Weather View 32 v70,2013-01-10 00:48:00,
2013-01-09 16:53:00,49.0,36.5,30.01,NE,45,0.0,20.0,62,0.00,,,0.01,Weather View 32 v70,2013-01-10 00:53:00,
2013-01-09 16:58:00,49.0,35.7,30.01,NE,45,4.0,20.0,60,0.00,,,0.01,Weather View 32 v70,2013-01-10 00:58:00,
2013-01-09 17:03:00,49.0,36.5,30.01,NE,45,9.0,20.0,62,0.00,,,0.01,Weather View 32 v70,2013-01-10 01:03:00,
2013-01-09 17:08:00,49.0,36.9,30.01,NE,45,3.0,20.0,63,0.00,,,0.01,Weather View 32 v70,2013-01-10 01:08:00,
2013-01-09 17:13:00,48.0,36.0,30.01,NE,45,8.0,20.0,63,0.00,,,0.01,Weather View 32 v70,2013-01-10 01:13:00,
2013-01-09 17:23:00,48.0,36.8,30.01,NE,45,10.0,20.0,65,0.00,,,0.01,Weather View 32 v70,2013-01-10 01:23:00,
2013-01-09 17:28:00,49.0,37.7,30.01,NE,45,7.0,20.0,65,0.00,,,0.01,Weather View 32 v70,2013-01-10 01:28:00,
2013-01-09 17:33:00,49.0,38.5,30.01,SSW,202,3.0,20.0,67,0.00,,,0.01,Weather View 32 v70,2013-01-10 01:33:00,
2013-01-09 17:38:00,49.0,38.9,30.01,SSW,202,6.0,20.0,68,0.00,,,0.01,Weather View 32 v70,2013-01-10 01:38:00,
2013-01-09 17:43:00,49.0,38.9,30.02,SSW,202,0.0,20.0,68,0.00,,,0.01,Weather View 32 v70,2013-01-10 01:43:00,
2013-01-09 17:48:00,49.0,39.6,30.01,SSW,202,7.0,20.0,70,0.00,,,0.01,Weather View 32 v70,2013-01-10 01:48:00,
2013-01-09 17:53:00,48.0,38.7,30.01,SSW,202,1.0,14.0,70,0.00,,,0.01,Weather View 32 v70,2013-01-10 01:53:00,
2013-01-09 17:58:00,48.0,39.0,30.01,South,180,5.0,14.0,71,0.00,,,0.01,Weather View 32 v70,2013-01-10 01:58:00,
2013-01-09 18:03:00,48.0,39.4,30.02,SSW,202,1.0,14.0,72,0.00,,,0.01,Weather View 32 v70,2013-01-10 02:03:00,
2013-01-09 18:08:00,48.0,39.7,30.02,SSW,202,2.0,14.0,73,0.00,,,0.01,Weather View 32 v70,2013-01-10 02:08:00,
2013-01-09 18:12:00,48.0,39.7,30.02,SSW,202,2.0,14.0,73,0.00,,,0.01,Weather View 32 v70,2013-01-10 02:12:00,
2013-01-09 18:13:00,48.0,39.7,30.02,SSW,202,4.0,14.0,73,0.00,,,0.01,Weather View 32 v70,2013-01-10 02:13:00,
2013-01-09 18:18:00,48.0,40.1,30.02,SSW,202,7.0,14.0,74,0.00,,,0.01,Weather View 32 v70,2013-01-10 02:18:00,
2013-01-09 18:23:00,48.0,40.4,30.02,SSW,202,6.0,16.0,75,0.00,,,0.01,Weather View 32 v70,2013-01-10 02:23:00,
2013-01-09 18:28:00,48.0,40.4,30.02,SSW,202,4.0,16.0,75,0.00,,,0.01,Weather View 32 v70,2013-01-10 02:28:00,
2013-01-09 18:33:00,48.0,40.8,30.02,SSW,202,2.0,16.0,76,0.00,,,0.01,Weather View 32 v70,2013-01-10 02:33:00,
2013-01-09 18:38:00,48.0,41.1,30.02,SSW,202,4.0,16.0,77,0.00,,,0.01,Weather View 32 v70,2013-01-10 02:38:00,
2013-01-09 18:43:00,47.0,40.2,30.02,SSW,202,1.0,16.0,77,0.00,,,0.01,Weather View 32 v70,2013-01-10 02:43:00,
2013-01-09 18:48:00,47.0,40.2,30.02,SSW,202,0.0,16.0,77,0.00,,,0.01,Weather View 32 v70,2013-01-10 02:48:00,
2013-01-09 18:53:00,47.0,40.2,30.03,SSW,202,8.0,16.0,77,0.00,,,0.01,Weather View 32 v70,2013-01-10 02:53:00,
2013-01-09 18:58:00,47.0,40.5,30.03,SSW,202,0.0,16.0,78,0.00,,,0.01,Weather View 32 v70,2013-01-10 02:58:00,
2013-01-09 19:03:00,47.0,40.2,30.03,SSW,202,10.0,16.0,77,0.00,,,0.01,Weather View 32 v70,2013-01-10 03:03:00,
2013-01-09 19:08:00,47.0,40.2,30.03,SSW,202,3.0,16.0,77,0.00,,,0.01,Weather View 32 v70,2013-01-10 03:08:00,
2013-01-09 19:12:00,47.0,40.2,30.03,SSW,202,3.0,16.0,77,0.00,,,0.01,Weather View 32 v70,2013-01-10 03:12:00,
2013-01-09 19:13:00,47.0,40.2,30.04,SSW,202,0.0,16.0,77,0.00,,,0.01,Weather View 32 v70,2013-01-10 03:13:00,
2013-01-09 19:18:00,47.0,40.2,30.04,SSW,202,0.0,16.0,77,0.00,,,0.01,Weather View 32 v70,2013-01-10 03:18:00,
2013-01-09 19:23:00,47.0,40.2,30.04,SSW,202,2.0,15.0,77,0.00,,,0.01,Weather View 32 v70,2013-01-10 03:23:00,
2013-01-09 19:28:00,47.0,40.2,30.04,SSW,202,0.0,15.0,77,0.00,,,0.01,Weather View 32 v70,2013-01-10 03:28:00,
2013-01-09 19:33:00,47.0,40.5,30.04,SE,135,2.0,15.0,78,0.00,,,0.01,Weather View 32 v70,2013-01-10 03:33:00,
2013-01-09 19:38:00,47.0,40.2,30.04,South,180,0.0,15.0,77,0.00,,,0.01,Weather View 32 v70,2013-01-10 03:38:00,
2013-01-09 19:43:00,47.0,40.2,30.04,SSW,202,8.0,15.0,77,0.00,,,0.01,Weather View 32 v70,2013-01-10 03:43:00,
2013-01-09 19:48:00,47.0,40.2,30.04,South,180,6.0,15.0,77,0.00,,,0.01,Weather View 32 v70,2013-01-10 03:48:00,
2013-01-09 19:53:00,47.0,40.2,30.04,SSW,202,3.0,15.0,77,0.00,,,0.01,Weather View 32 v70,2013-01-10 03:53:00,
2013-01-09 19:58:00,47.0,40.2,30.04,SSW,202,3.0,15.0,77,0.00,,,0.01,Weather View 32 v70,2013-01-10 03:58:00,
2013-01-09 20:03:00,47.0,40.2,30.04,SSW,202,6.0,15.0,77,0.00,,,0.01,Weather View 32 v70,2013-01-10 04:03:00,
2013-01-09 20:08:00,47.0,40.5,30.04,SSW,202,0.0,15.0,78,0.00,,,0.01,Weather View 32 v70,2013-01-10 04:08:00,
2013-01-09 20:13:00,46.0,39.2,30.04,SSW,202,4.0,15.0,77,0.00,,,0.01,Weather View 32 v70,2013-01-10 04:13:00,
2013-01-09 20:18:00,46.0,39.2,30.05,SSW,202,0.0,15.0,77,0.00,,,0.01,Weather View 32 v70,2013-01-10 04:18:00,
2013-01-09 20:23:00,46.0,39.5,30.05,SSW,202,0.0,15.0,78,0.00,,,0.01,Weather View 32 v70,2013-01-10 04:23:00,
2013-01-09 20:28:00,46.0,39.5,30.05,SSW,202,2.0,15.0,78,0.00,,,0.01,Weather View 32 v70,2013-01-10 04:28:00,
2013-01-09 20:37:00,46.0,39.5,30.05,SSW,202,0.0,15.0,78,0.00,,,0.01,Weather View 32 v70,2013-01-10 04:37:00,
2013-01-09 20:42:00,46.0,39.8,30.05,SSW,202,5.0,15.0,79,0.00,,,0.01,Weather View 32 v70,2013-01-10 04:42:00,
2013-01-09 20:47:00,46.0,39.5,30.05,SSW,202,1.0,15.0,78,0.00,,,0.01,Weather View 32 v70,2013-01-10 04:47:00,
2013-01-09 20:52:00,46.0,39.5,30.05,SSW,202,5.0,15.0,78,0.00,,,0.01,Weather View 32 v70,2013-01-10 04:52:00,
2013-01-09 20:57:00,46.0,39.5,30.06,SSW,202,4.0,15.0,78,0.00,,,0.01,Weather View 32 v70,2013-01-10 04:57:00,
2013-01-09 20:59:00,46.0,39.5,30.06,SSW,202,5.0,15.0,78,0.00,,,0.01,Weather View 32 v70,2013-01-10 04:59:00,
2013-01-09 21:04:00,46.0,39.8,30.06,SSW,202,8.0,14.0,79,0.00,,,0.01,Weather View 32 v70,2013-01-10 05:04:00,
2013-01-09 21:09:00,46.0,39.5,30.06,SSW,202,4.0,14.0,78,0.00,,,0.01,Weather View 32 v70,2013-01-10 05:09:00,
2013-01-09 21:14:00,46.0,39.5,30.06,SSW,202,9.0,14.0,78,0.00,,,0.01,Weather View 32 v70,2013-01-10 05:14:00,
2013-01-09 21:18:00,46.0,39.5,30.06,SSW,202,0.0,14.0,78,0.00,,,0.01,Weather View 32 v70,2013-01-10 05:18:00,
2013-01-09 21:24:00,46.0,39.5,30.06,SSW,202,6.0,14.0,78,0.00,,,0.01,Weather View 32 v70,2013-01-10 05:24:00,
2013-01-09 21:33:00,46.0,39.5,30.06,SSW,202,1.0,14.0,78,0.00,,,0.01,Weather View 32 v70,2013-01-10 05:33:00,
2013-01-09 21:38:00,46.0,39.8,30.06,SSW,202,7.0,14.0,79,0.00,,,0.01,Weather View 32 v70,2013-01-10 05:38:00,
2013-01-09 21:43:00,46.0,39.5,30.06,SSW,202,5.0,12.0,78,0.00,,,0.01,Weather View 32 v70,2013-01-10 05:43:00,
2013-01-09 21:48:00,46.0,39.5,30.06,SSW,202,0.0,12.0,78,0.00,,,0.01,Weather View 32 v70,2013-01-10 05:48:00,
2013-01-09 21:53:00,46.0,39.5,30.06,SSW,202,4.0,12.0,78,0.00,,,0.01,Weather View 32 v70,2013-01-10 05:53:00,
2013-01-09 21:58:00,46.0,39.5,30.06,SSW,202,0.0,13.0,78,0.00,,,0.01,Weather View 32 v70,2013-01-10 05:58:00,
2013-01-09 22:03:00,46.0,39.5,30.06,SSW,202,2.0,13.0,78,0.00,,,0.01,Weather View 32 v70,2013-01-10 06:03:00,
2013-01-09 22:08:00,46.0,39.5,30.07,SSW,202,4.0,16.0,78,0.00,,,0.01,Weather View 32 v70,2013-01-10 06:08:00,
2013-01-09 22:13:00,46.0,39.8,30.07,SSW,202,6.0,16.0,79,0.00,,,0.01,Weather View 32 v70,2013-01-10 06:13:00,
2013-01-09 22:14:00,46.0,39.8,30.07,SSW,202,6.0,16.0,79,0.00,,,0.01,Weather View 32 v70,2013-01-10 06:14:00,
2013-01-09 22:23:00,45.0,38.5,30.07,SSW,202,8.0,16.0,78,0.00,,,0.01,Weather View 32 v70,2013-01-10 06:23:00,
2013-01-09 22:28:00,45.0,38.9,30.07,SSW,202,4.0,16.0,79,0.00,,,0.01,Weather View 32 v70,2013-01-10 06:28:00,
2013-01-09 22:38:00,45.0,38.5,30.07,SSW,202,3.0,16.0,78,0.00,,,0.01,Weather View 32 v70,2013-01-10 06:38:00,
2013-01-09 22:43:00,45.0,38.5,30.07,SSW,202,1.0,16.0,78,0.00,,,0.01,Weather View 32 v70,2013-01-10 06:43:00,
2013-01-09 22:48:00,45.0,38.9,30.08,SSW,202,3.0,16.0,79,0.00,,,0.01,Weather View 32 v70,2013-01-10 06:48:00,
2013-01-09 22:53:00,45.0,38.5,30.08,SSW,202,0.0,16.0,78,0.00,,,0.01,Weather View 32 v70,2013-01-10 06:53:00,
2013-01-09 23:03:00,45.0,38.9,30.07,SSW,202,1.0,16.0,79,0.00,,,0.01,Weather View 32 v70,2013-01-10 07:03:00,
2013-01-09 23:08:00,45.0,38.5,30.07,SSW,202,4.0,14.0,78,0.00,,,0.01,Weather View 32 v70,2013-01-10 07:08:00,
2013-01-09 23:13:00,44.0,37.6,30.08,SSW,202,3.0,14.0,78,0.00,,,0.01,Weather View 32 v70,2013-01-10 07:13:00,
2013-01-09 23:18:00,44.0,37.6,30.08,SSW,202,0.0,14.0,78,0.00,,,0.01,Weather View 32 v70,2013-01-10 07:18:00,
2013-01-09 23:23:00,45.0,38.5,30.08,SSW,202,0.0,14.0,78,0.00,,,0.01,Weather View 32 v70,2013-01-10 07:23:00,
2013-01-09 23:28:00,44.0,37.6,30.08,SE,135,0.0,14.0,78,0.00,,,0.01,Weather View 32 v70,2013-01-10 07:28:00,
2013-01-09 23:33:00,44.0,37.6,30.08,SSW,202,6.0,14.0,78,0.00,,,0.01,Weather View 32 v70,2013-01-10 07:33:00,
2013-01-09 23:38:00,44.0,37.9,30.09,SSW,202,1.0,12.0,79,0.00,,,0.01,Weather View 32 v70,2013-01-10 07:38:00,
2013-01-09 23:43:00,44.0,37.6,30.09,SSW,202,0.0,12.0,78,0.00,,,0.01,Weather View 32 v70,2013-01-10 07:43:00,
2013-01-09 23:48:00,44.0,37.6,30.09,SSW,202,2.0,12.0,78,0.00,,,0.01,Weather View 32 v70,2013-01-10 07:48:00,
2013-01-09 23:53:00,44.0,37.9,30.09,WNW,292,0.0,11.0,79,0.00,,,0.01,Weather View 32 v70,2013-01-10 07:53:00,
2013-01-09 23:58:00,44.0,37.6,30.09,West,270,0.0,11.0,78,0.00,,,0.00,Weather View 32 v70,2013-01-10 07:58:00,